Terminal Aerodrome Forecast
Issued by NWS Kansas City/Pleasant Hill, MO

Home | Current Version | Previous Version | Text Only | Print | Product List | Glossary On
Versions: 1 2 3 4 5 6 7 8 9 10 11 12 13 14 15 16 17 18 19 20 21
000
FTUS43 KEAX 072330
TAFMCI
TAF
KMCI 072330Z 0800/0824 05007KT 6SM HZ SCT040 OVC200
     FM080800 06008KT P6SM VCSH BKN030
     FM081200 06013KT 5SM -RA BR OVC008
     FM082100 02009KT P6SM VCSH OVC010=

USA.gov is the U.S. government's official web portal to all federal, state and local government web resources and services.